Time;durP1;ratioP1;P1;durP2;ratioP2;P2;SDS_P1;SDS_P2;PMS_P1;PMS_P2;Temp;Humidity;BMP_temperature;BMP_pressure;BME280_temperature;BME280_humidity;BME280_pressure;Samples;Min_cycle;Max_cycle;Signal;HPM_P1;HPM_P2
2021/08/13 00:02:26;;;;;;;0.00;0.00;;;26.60;70.20;;;;;;5059331;28;20593;-66
2021/08/13 00:04:53;;;;;;;0.13;0.13;;;26.60;70.30;;;;;;5068828;28;20647;-66
2021/08/13 00:07:20;;;;;;;0.20;0.20;;;26.50;70.30;;;;;;5062506;28;20225;-66
2021/08/13 00:09:47;;;;;;;0.73;0.73;;;26.50;70.10;;;;;;5060189;28;20218;-66
2021/08/13 00:12:14;;;;;;;0.10;0.10;;;26.50;69.90;;;;;;5061850;28;20217;-66
2021/08/13 00:14:41;;;;;;;0.10;0.10;;;26.50;69.70;;;;;;5062483;28;20213;-66
2021/08/13 00:17:08;;;;;;;0.00;0.00;;;26.50;70.20;;;;;;5059174;28;20214;-66
2021/08/13 00:19:35;;;;;;;0.10;0.10;;;26.40;69.40;;;;;;5062574;28;20209;-66
2021/08/13 00:22:03;;;;;;;0.10;0.10;;;26.40;69.50;;;;;;5062585;28;20206;-66
2021/08/13 00:24:30;;;;;;;0.00;0.00;;;26.40;69.50;;;;;;5063529;28;20762;-66
2021/08/13 00:26:57;;;;;;;0.00;0.00;;;26.30;69.50;;;;;;5061720;28;20581;-66
2021/08/13 00:29:24;;;;;;;0.10;0.10;;;26.30;69.50;;;;;;5060699;28;20291;-67
2021/08/13 00:31:51;;;;;;;0.10;0.10;;;26.30;69.60;;;;;;5062608;28;20682;-66
2021/08/13 00:34:18;;;;;;;0.77;0.77;;;26.30;69.80;;;;;;5061148;28;20480;-66
2021/08/13 00:36:45;;;;;;;0.00;0.00;;;26.30;70.10;;;;;;5067229;28;20212;-66
2021/08/13 00:39:12;;;;;;;0.10;0.10;;;26.20;70.20;;;;;;5061214;28;20214;-66
2021/08/13 00:41:39;;;;;;;0.13;0.13;;;26.20;70.20;;;;;;5063647;28;20214;-66
2021/08/13 00:44:06;;;;;;;0.00;0.00;;;26.10;70.10;;;;;;5063727;28;20456;-66
2021/08/13 00:46:33;;;;;;;0.30;0.30;;;26.00;70.10;;;;;;5062456;28;20218;-66
2021/08/13 00:49:00;;;;;;;0.40;0.40;;;26.00;70.00;;;;;;5061573;28;20257;-66
2021/08/13 00:51:27;;;;;;;0.10;0.10;;;26.00;70.10;;;;;;5059031;28;20244;-66
2021/08/13 00:53:55;;;;;;;0.50;0.50;;;26.00;70.20;;;;;;5063248;28;20217;-66
2021/08/13 00:56:22;;;;;;;0.00;0.00;;;25.90;70.20;;;;;;5061386;28;20225;-66
2021/08/13 00:58:49;;;;;;;0.00;0.00;;;25.90;70.50;;;;;;5059014;28;20214;-66
2021/08/13 01:01:16;;;;;;;0.07;0.07;;;25.90;71.60;;;;;;5065958;28;20221;-66
2021/08/13 01:03:44;;;;;;;0.10;0.10;;;25.90;71.20;;;;;;5062528;28;20481;-66
2021/08/13 01:06:33;;;;;;;0.03;0.03;;;25.90;71.50;;;;;;5063745;28;20240;-66
2021/08/13 01:09:00;;;;;;;1.40;1.03;;;25.90;71.50;;;;;;5060068;28;20237;-66
2021/08/13 01:11:57;;;;;;;1.23;1.23;;;25.90;71.40;;;;;;5062788;28;20211;-66
2021/08/13 01:14:41;;;;;;;0.17;0.17;;;25.90;71.60;;;;;;5064335;28;20213;-66
2021/08/13 01:17:10;;;;;;;0.10;0.10;;;26.00;71.70;;;;;;5065879;28;20214;-66
2021/08/13 01:20:02;;;;;;;0.10;0.10;;;26.00;71.60;;;;;;5066095;28;20206;-66
2021/08/13 01:23:11;;;;;;;0.00;0.00;;;26.00;71.60;;;;;;5072307;28;20690;-66
2021/08/13 01:25:43;;;;;;;0.00;0.00;;;26.00;71.70;;;;;;5066797;28;20459;-66
2021/08/13 01:28:31;;;;;;;0.00;0.00;;;26.00;71.70;;;;;;5063326;28;20589;-66
2021/08/13 01:31:02;;;;;;;0.10;0.10;;;25.90;71.80;;;;;;5067144;28;20245;-66
2021/08/13 01:33:31;;;;;;;0.00;0.00;;;25.90;72.00;;;;;;5063804;28;20213;-66
2021/08/13 01:36:01;;;;;;;0.10;0.10;;;25.80;72.10;;;;;;5068487;28;20295;-66
2021/08/13 01:38:29;;;;;;;0.20;0.20;;;25.80;72.40;;;;;;5067173;28;20783;-66
2021/08/13 01:41:00;;;;;;;0.20;0.20;;;25.70;72.50;;;;;;5063633;28;20218;-66
2021/08/13 01:43:28;;;;;;;0.00;0.00;;;25.70;72.50;;;;;;5064897;28;20659;-66
2021/08/13 01:45:57;;;;;;;0.10;0.10;;;25.70;72.70;;;;;;5063834;28;20833;-66
2021/08/13 01:48:26;;;;;;;0.10;0.10;;;25.60;72.80;;;;;;5072901;28;20241;-66
2021/08/13 01:50:54;;;;;;;0.10;0.10;;;25.60;73.10;;;;;;5063942;28;20210;-66
2021/08/13 01:53:22;;;;;;;0.43;0.43;;;25.50;73.40;;;;;;5064866;28;20221;-66
2021/08/13 01:55:51;;;;;;;0.10;0.10;;;25.40;73.60;;;;;;5067806;28;20209;-66
2021/08/13 01:58:19;;;;;;;1.30;1.20;;;25.30;73.60;;;;;;5072771;28;20251;-66
2021/08/13 02:00:49;;;;;;;0.00;0.00;;;25.30;73.70;;;;;;5065073;28;20598;-66
2021/08/13 02:03:17;;;;;;;0.10;0.10;;;25.30;73.80;;;;;;5063626;28;20237;-66
2021/08/13 02:05:46;;;;;;;0.00;0.00;;;25.30;74.00;;;;;;5062780;28;20309;-66
2021/08/13 02:08:14;;;;;;;0.10;0.10;;;25.20;74.00;;;;;;5062472;28;20238;-66
2021/08/13 02:10:44;;;;;;;0.10;0.10;;;25.20;73.90;;;;;;5066697;28;20240;-66
2021/08/13 02:13:12;;;;;;;0.00;0.00;;;25.20;73.90;;;;;;5062952;28;20207;-66
2021/08/13 02:15:43;;;;;;;0.50;0.50;;;25.20;74.00;;;;;;5063467;28;20261;-66
2021/08/13 02:18:14;;;;;;;0.10;0.10;;;25.10;74.00;;;;;;5065570;28;20604;-66
2021/08/13 02:20:44;;;;;;;0.20;0.20;;;25.10;74.10;;;;;;5062797;28;20605;-66
2021/08/13 02:23:11;;;;;;;0.40;0.40;;;25.10;74.90;;;;;;5062583;28;20214;-66
2021/08/13 02:25:38;;;;;;;0.30;0.30;;;25.10;74.40;;;;;;5064338;28;20240;-66
2021/08/13 02:28:05;;;;;;;0.60;0.60;;;25.10;74.70;;;;;;5063514;28;20231;-66
2021/08/13 02:30:32;;;;;;;0.00;0.00;;;25.00;75.10;;;;;;5065544;28;20246;-66
2021/08/13 02:32:59;;;;;;;0.67;0.67;;;25.00;75.40;;;;;;5065011;28;20298;-66
2021/08/13 02:35:30;;;;;;;0.00;0.00;;;25.00;75.70;;;;;;5071152;28;20214;-66
2021/08/13 02:38:14;;;;;;;0.00;0.00;;;24.90;75.70;;;;;;5061196;28;20272;-66
2021/08/13 02:40:51;;;;;;;0.70;0.47;;;24.80;76.00;;;;;;5062285;28;20206;-66
2021/08/13 02:43:24;;;;;;;0.00;0.00;;;24.80;76.30;;;;;;5066272;28;20307;-66
2021/08/13 02:45:56;;;;;;;0.00;0.00;;;24.80;76.30;;;;;;5060956;28;20218;-66
2021/08/13 02:48:23;;;;;;;0.10;0.10;;;24.80;76.10;;;;;;5061580;28;20309;-66
2021/08/13 02:50:52;;;;;;;0.00;0.00;;;24.70;76.00;;;;;;5064148;28;20214;-66
2021/08/13 02:53:21;;;;;;;0.60;0.60;;;24.70;76.10;;;;;;5063409;28;20636;-66
2021/08/13 02:55:56;;;;;;;0.37;0.37;;;24.70;76.20;;;;;;5061942;28;20348;-66
2021/08/13 02:58:27;;;;;;;0.30;0.30;;;24.70;76.30;;;;;;5063355;28;20217;-66
2021/08/13 03:00:56;;;;;;;0.10;0.10;;;24.70;76.40;;;;;;5065079;28;20248;-66
2021/08/13 03:03:29;;;;;;;0.30;0.30;;;24.70;76.60;;;;;;5070908;28;20211;-66
2021/08/13 03:05:58;;;;;;;0.00;0.00;;;24.70;76.90;;;;;;5061384;28;20514;-66
2021/08/13 03:08:26;;;;;;;0.50;0.50;;;24.70;76.90;;;;;;5063424;28;20226;-66
2021/08/13 03:10:53;;;;;;;0.00;0.00;;;24.70;77.40;;;;;;5064900;28;20277;-66
2021/08/13 03:13:23;;;;;;;0.10;0.10;;;24.70;77.40;;;;;;5061569;28;20225;-66
2021/08/13 03:15:51;;;;;;;0.10;0.10;;;24.60;77.50;;;;;;5064909;28;20210;-66
2021/08/13 03:18:19;;;;;;;0.10;0.10;;;24.60;77.80;;;;;;5067727;28;20595;-66
2021/08/13 03:20:49;;;;;;;3.70;0.40;;;24.60;78.00;;;;;;5065337;28;20215;-66
2021/08/13 03:23:16;;;;;;;0.10;0.10;;;24.60;78.10;;;;;;5064933;28;20264;-66
2021/08/13 03:25:44;;;;;;;0.17;0.17;;;24.60;78.10;;;;;;5068115;28;20218;-66
2021/08/13 03:28:11;;;;;;;2.03;1.60;;;24.50;78.00;;;;;;5065766;28;20221;-66
2021/08/13 03:30:43;;;;;;;0.10;0.10;;;24.50;78.10;;;;;;5065794;28;20242;-66
2021/08/13 03:33:13;;;;;;;0.00;0.00;;;24.50;78.10;;;;;;5064733;28;20210;-66
2021/08/13 03:35:41;;;;;;;0.10;0.10;;;24.50;77.50;;;;;;5069332;28;20634;-66
2021/08/13 03:38:08;;;;;;;0.10;0.10;;;24.30;76.70;;;;;;5062784;28;20221;-66
2021/08/13 03:40:36;;;;;;;0.10;0.10;;;24.30;76.60;;;;;;5064247;28;20209;-66
2021/08/13 03:43:03;;;;;;;0.10;0.10;;;24.20;76.40;;;;;;5066131;28;20214;-66
2021/08/13 03:45:30;;;;;;;0.10;0.10;;;24.20;76.60;;;;;;5070899;28;20202;-66
2021/08/13 03:47:57;;;;;;;0.27;0.27;;;24.20;77.30;;;;;;5064795;28;20232;-66
2021/08/13 03:50:24;;;;;;;0.00;0.00;;;24.20;77.70;;;;;;5067309;28;20302;-66
2021/08/13 03:52:51;;;;;;;0.50;0.50;;;24.20;77.80;;;;;;5063927;28;20214;-66
2021/08/13 03:55:19;;;;;;;0.10;0.10;;;24.20;78.10;;;;;;5061950;28;20237;-66
2021/08/13 03:57:46;;;;;;;0.50;0.50;;;24.20;78.70;;;;;;5063492;28;20201;-66
2021/08/13 04:00:13;;;;;;;0.20;0.20;;;24.20;79.10;;;;;;5063895;28;20451;-66
2021/08/13 04:02:40;;;;;;;0.10;0.10;;;24.20;79.00;;;;;;5062442;28;20562;-66
2021/08/13 04:05:08;;;;;;;1.90;0.63;;;24.30;79.10;;;;;;5059759;28;20273;-66
2021/08/13 04:07:35;;;;;;;0.20;0.20;;;24.30;79.10;;;;;;5062366;28;20213;-66
2021/08/13 04:10:03;;;;;;;0.27;0.27;;;24.30;79.30;;;;;;5062600;28;20541;-66
2021/08/13 04:12:30;;;;;;;0.20;0.20;;;24.30;79.40;;;;;;5060279;28;20222;-66
2021/08/13 04:14:57;;;;;;;0.10;0.10;;;24.30;79.90;;;;;;5062683;28;20209;-66
2021/08/13 04:17:24;;;;;;;0.20;0.20;;;24.30;80.10;;;;;;5062391;28;20650;-66
2021/08/13 04:19:51;;;;;;;0.93;0.93;;;24.30;79.90;;;;;;5060360;28;20221;-66
2021/08/13 04:22:18;;;;;;;0.97;0.67;;;24.30;79.80;;;;;;5061921;28;20221;-66
2021/08/13 04:24:45;;;;;;;0.83;0.80;;;24.40;79.80;;;;;;5070753;28;20214;-66
2021/08/13 04:27:12;;;;;;;0.00;0.00;;;24.50;79.70;;;;;;5060153;28;20256;-66
2021/08/13 04:29:39;;;;;;;0.80;0.80;;;24.50;79.60;;;;;;5069569;28;20622;-66
2021/08/13 04:32:06;;;;;;;0.20;0.20;;;24.60;79.80;;;;;;5060003;28;20242;-66
2021/08/13 04:34:33;;;;;;;0.10;0.10;;;24.60;79.90;;;;;;5063192;28;20271;-66
2021/08/13 04:37:01;;;;;;;0.00;0.00;;;24.60;79.80;;;;;;5061198;28;20275;-66
2021/08/13 04:39:28;;;;;;;0.10;0.10;;;24.70;79.80;;;;;;5062281;28;20222;-66
2021/08/13 04:41:54;;;;;;;0.00;0.00;;;24.80;79.80;;;;;;5063372;28;20209;-66
2021/08/13 04:44:22;;;;;;;0.10;0.10;;;24.80;79.60;;;;;;5062136;28;20210;-66
2021/08/13 04:46:48;;;;;;;0.10;0.10;;;24.80;79.50;;;;;;5060123;28;20218;-66
2021/08/13 04:49:15;;;;;;;0.43;0.43;;;24.90;79.40;;;;;;5064254;28;20221;-66
2021/08/13 04:51:43;;;;;;;0.43;0.43;;;24.90;79.40;;;;;;5071804;28;20266;-66
2021/08/13 04:54:11;;;;;;;0.10;0.10;;;25.00;79.30;;;;;;5065547;28;20217;-66
2021/08/13 04:56:39;;;;;;;0.20;0.20;;;25.10;79.40;;;;;;5063980;28;20203;-66
2021/08/13 04:59:07;;;;;;;0.00;0.00;;;25.20;79.40;;;;;;5064977;28;20609;-66
2021/08/13 05:01:34;;;;;;;0.00;0.00;;;25.40;79.30;;;;;;5066432;28;20209;-66
2021/08/13 05:04:01;;;;;;;0.20;0.20;;;25.50;79.00;;;;;;5072159;28;20254;-66
2021/08/13 05:06:28;;;;;;;0.00;0.00;;;25.50;78.70;;;;;;5063349;28;20213;-66
2021/08/13 05:08:55;;;;;;;0.30;0.30;;;25.50;78.50;;;;;;5066303;28;20315;-66
2021/08/13 05:11:22;;;;;;;0.20;0.20;;;25.50;78.40;;;;;;5071988;28;20233;-66
2021/08/13 05:13:49;;;;;;;0.10;0.10;;;25.50;78.30;;;;;;5063477;28;20214;-66
2021/08/13 05:16:16;;;;;;;0.00;0.00;;;25.50;78.20;;;;;;5065925;28;20651;-66
2021/08/13 05:18:43;;;;;;;0.10;0.10;;;25.50;78.30;;;;;;5066040;28;20210;-66
2021/08/13 05:21:10;;;;;;;1.03;1.03;;;25.40;78.10;;;;;;5066544;28;20275;-66
2021/08/13 05:23:37;;;;;;;0.20;0.20;;;25.50;78.10;;;;;;5063975;28;20214;-66
2021/08/13 05:26:04;;;;;;;0.40;0.40;;;25.60;78.00;;;;;;5064726;28;20295;-66
2021/08/13 05:28:35;;;;;;;0.10;0.10;;;25.60;77.80;;;;;;5065647;28;20202;-66
2021/08/13 05:31:02;;;;;;;0.20;0.20;;;25.70;77.60;;;;;;5062742;28;20242;-66
2021/08/13 05:33:30;;;;;;;0.60;0.60;;;25.80;77.50;;;;;;5063178;28;20220;-66
2021/08/13 05:35:56;;;;;;;0.10;0.10;;;25.90;77.30;;;;;;5061942;28;20221;-66
2021/08/13 05:38:23;;;;;;;0.20;0.20;;;26.00;77.10;;;;;;5065422;28;20214;-66
2021/08/13 05:40:50;;;;;;;0.67;0.67;;;26.10;77.10;;;;;;5064256;28;20665;-66
2021/08/13 05:43:17;;;;;;;0.10;0.10;;;26.10;76.90;;;;;;5063909;28;20656;-66
2021/08/13 05:45:44;;;;;;;0.20;0.20;;;26.20;77.00;;;;;;5068502;28;20714;-66
2021/08/13 05:48:11;;;;;;;0.00;0.00;;;26.20;76.80;;;;;;5064725;28;20255;-66
2021/08/13 05:50:38;;;;;;;0.10;0.10;;;26.30;76.80;;;;;;5069369;28;20230;-66
2021/08/13 05:53:05;;;;;;;0.10;0.10;;;26.30;76.60;;;;;;5065245;28;20647;-66
2021/08/13 05:55:32;;;;;;;0.00;0.00;;;26.30;76.50;;;;;;5064216;28;20290;-66
2021/08/13 05:57:59;;;;;;;0.00;0.00;;;26.30;76.40;;;;;;5069935;28;20268;-66
2021/08/13 06:00:26;;;;;;;0.00;0.00;;;26.30;76.50;;;;;;5063188;28;20371;-66
2021/08/13 06:02:55;;;;;;;0.10;0.10;;;26.40;76.60;;;;;;5072096;28;20229;-66
2021/08/13 06:05:23;;;;;;;0.20;0.20;;;26.30;76.60;;;;;;5061312;28;20218;-66
2021/08/13 06:07:51;;;;;;;0.10;0.10;;;26.40;76.70;;;;;;5065087;28;20229;-66
2021/08/13 06:10:19;;;;;;;0.10;0.10;;;26.40;76.60;;;;;;5061329;28;20589;-66
2021/08/13 06:12:47;;;;;;;0.00;0.00;;;26.50;76.40;;;;;;5053619;28;20210;-66
2021/08/13 06:15:15;;;;;;;0.70;0.70;;;26.60;76.30;;;;;;5053434;28;20206;-66
2021/08/13 06:17:43;;;;;;;0.20;0.20;;;26.70;75.90;;;;;;5067586;28;20210;-66
2021/08/13 06:20:13;;;;;;;0.10;0.10;;;26.70;75.70;;;;;;5070660;28;20585;-66
2021/08/13 06:22:40;;;;;;;0.10;0.10;;;26.80;75.50;;;;;;5062360;28;20218;-66
2021/08/13 06:25:08;;;;;;;0.20;0.20;;;26.90;75.30;;;;;;5064751;28;20209;-66
2021/08/13 06:27:38;;;;;;;0.00;0.00;;;27.00;75.00;;;;;;5063201;28;20214;-66
2021/08/13 06:30:05;;;;;;;0.27;0.27;;;27.10;74.70;;;;;;5061791;28;20234;-66
2021/08/13 06:32:32;;;;;;;0.00;0.00;;;27.10;74.00;;;;;;5062817;28;20736;-66
2021/08/13 06:34:59;;;;;;;0.30;0.30;;;27.10;74.10;;;;;;5063673;28;20244;-66
2021/08/13 06:37:26;;;;;;;1.23;1.23;;;27.10;73.10;;;;;;5061305;28;20687;-66
2021/08/13 06:39:53;;;;;;;0.10;0.10;;;27.10;72.80;;;;;;5064041;28;20640;-66
2021/08/13 06:42:20;;;;;;;0.63;0.63;;;27.20;72.90;;;;;;5063132;28;20764;-66
2021/08/13 06:44:47;;;;;;;0.00;0.00;;;27.10;72.80;;;;;;5065032;28;20218;-66
2021/08/13 06:47:14;;;;;;;0.10;0.10;;;27.20;72.90;;;;;;5061611;28;20561;-66
2021/08/13 06:49:41;;;;;;;0.43;0.43;;;27.20;73.40;;;;;;5062251;28;20295;-66
2021/08/13 06:52:10;;;;;;;0.10;0.10;;;27.30;73.40;;;;;;5063884;28;20586;-66
2021/08/13 06:54:37;;;;;;;0.20;0.20;;;27.30;72.70;;;;;;5061617;28;20206;-66
2021/08/13 06:57:04;;;;;;;0.03;0.03;;;27.30;72.70;;;;;;5061538;28;20218;-66
2021/08/13 06:59:31;;;;;;;0.00;0.00;;;27.30;72.80;;;;;;5064407;28;20228;-66
2021/08/13 07:01:58;;;;;;;0.00;0.00;;;27.30;72.80;;;;;;5062378;28;20214;-66
2021/08/13 07:04:25;;;;;;;0.00;0.00;;;27.30;72.80;;;;;;5061310;28;20636;-66
2021/08/13 07:06:52;;;;;;;0.10;0.10;;;27.30;72.80;;;;;;5063766;28;20213;-66
2021/08/13 07:09:19;;;;;;;0.10;0.10;;;27.30;72.80;;;;;;5063381;28;20679;-66
2021/08/13 07:11:46;;;;;;;0.20;0.20;;;27.20;72.20;;;;;;5060353;28;20218;-66
2021/08/13 07:14:13;;;;;;;0.30;0.30;;;27.20;71.90;;;;;;5064121;28;20240;-66
2021/08/13 07:16:39;;;;;;;0.10;0.10;;;27.20;71.70;;;;;;5062443;28;20210;-66
2021/08/13 07:19:07;;;;;;;0.10;0.10;;;27.20;71.80;;;;;;5061802;28;20210;-66
2021/08/13 07:21:34;;;;;;;0.30;0.30;;;27.20;72.10;;;;;;5068917;28;20591;-66
2021/08/13 07:24:00;;;;;;;0.30;0.30;;;27.20;73.10;;;;;;5061063;28;20225;-66
2021/08/13 07:26:27;;;;;;;0.00;0.00;;;27.10;73.50;;;;;;5060440;28;20246;-66
2021/08/13 07:28:54;;;;;;;0.07;0.07;;;27.10;73.80;;;;;;5064830;28;20224;-66
2021/08/13 07:31:22;;;;;;;1.17;1.17;;;27.00;74.20;;;;;;5062213;28;20259;-66
2021/08/13 07:33:49;;;;;;;0.27;0.27;;;27.00;74.60;;;;;;5061275;28;20260;-66
2021/08/13 07:36:16;;;;;;;0.00;0.00;;;27.00;74.90;;;;;;5063820;28;20218;-67
2021/08/13 07:38:44;;;;;;;0.33;0.33;;;26.90;75.60;;;;;;5062691;28;20227;-67
2021/08/13 07:41:11;;;;;;;0.60;0.60;;;26.80;75.40;;;;;;5061279;28;20214;-67
2021/08/13 07:43:38;;;;;;;0.13;0.13;;;26.80;75.90;;;;;;5064112;28;20202;-67
2021/08/13 07:46:05;;;;;;;0.00;0.00;;;26.70;76.00;;;;;;5061245;28;20213;-67
2021/08/13 07:48:32;;;;;;;0.10;0.10;;;26.70;76.20;;;;;;5063659;28;20209;-66
2021/08/13 07:50:59;;;;;;;0.20;0.20;;;26.80;76.80;;;;;;5069094;28;20342;-66
2021/08/13 07:53:26;;;;;;;0.30;0.30;;;26.70;76.30;;;;;;5062051;28;20214;-66
2021/08/13 07:55:53;;;;;;;0.07;0.07;;;26.70;76.60;;;;;;5062997;28;20225;-66
2021/08/13 07:58:20;;;;;;;11.30;1.43;;;26.70;76.90;;;;;;5060943;28;20214;-67
2021/08/13 08:00:47;;;;;;;0.77;0.40;;;26.60;76.90;;;;;;5061206;28;20248;-66
2021/08/13 08:03:14;;;;;;;0.27;0.27;;;26.60;76.90;;;;;;5063241;28;20209;-66
2021/08/13 08:05:41;;;;;;;0.10;0.10;;;26.60;76.80;;;;;;5061002;28;20268;-66
2021/08/13 08:08:08;;;;;;;0.10;0.10;;;26.50;76.80;;;;;;5061310;28;20218;-66
2021/08/13 08:10:36;;;;;;;0.63;0.63;;;26.50;76.80;;;;;;5062811;28;20722;-66
2021/08/13 08:13:02;;;;;;;2.40;2.20;;;26.50;77.20;;;;;;5061188;28;20292;-66
2021/08/13 08:15:30;;;;;;;3.13;2.00;;;26.50;77.60;;;;;;5060946;28;20628;-66
2021/08/13 08:17:57;;;;;;;0.50;0.50;;;26.40;77.60;;;;;;5063022;28;20210;-66
2021/08/13 08:20:24;;;;;;;0.00;0.00;;;26.40;77.80;;;;;;5061172;28;20248;-66
2021/08/13 08:22:51;;;;;;;0.10;0.10;;;26.50;78.00;;;;;;5060843;28;20233;-66
2021/08/13 08:25:18;;;;;;;1.30;1.30;;;26.50;78.20;;;;;;5065913;28;20358;-66
2021/08/13 08:27:45;;;;;;;1.00;1.00;;;26.60;78.80;;;;;;5065218;28;20218;-66
2021/08/13 08:30:13;;;;;;;0.20;0.20;;;26.60;78.90;;;;;;5065902;28;20230;-66
2021/08/13 08:32:40;;;;;;;0.20;0.20;;;26.60;78.70;;;;;;5073676;28;20217;-66
2021/08/13 08:35:08;;;;;;;0.33;0.33;;;26.60;78.50;;;;;;5065222;28;20240;-66
2021/08/13 08:37:47;;;;;;;1.50;1.10;;;26.70;78.60;;;;;;5064203;28;20218;-66
2021/08/13 08:40:21;;;;;;;0.00;0.00;;;26.70;79.00;;;;;;5065679;28;20221;-66
2021/08/13 08:42:48;;;;;;;0.10;0.10;;;26.70;78.90;;;;;;5066977;28;20612;-66
2021/08/13 08:45:15;;;;;;;0.00;0.00;;;26.80;78.80;;;;;;5066597;28;20635;-66
2021/08/13 08:47:44;;;;;;;0.30;0.30;;;26.80;78.90;;;;;;5066590;28;20236;-66
2021/08/13 08:50:12;;;;;;;0.23;0.23;;;26.80;78.80;;;;;;5064177;28;20233;-66
2021/08/13 08:52:41;;;;;;;0.93;0.93;;;26.90;78.70;;;;;;5064522;28;20225;-66
2021/08/13 08:55:08;;;;;;;0.00;0.00;;;27.00;78.70;;;;;;5066765;28;20213;-66
2021/08/13 08:57:39;;;;;;;0.10;0.10;;;27.10;78.60;;;;;;5064509;28;20207;-66
2021/08/13 09:00:08;;;;;;;0.10;0.10;;;27.10;78.60;;;;;;5063576;28;20522;-66
2021/08/13 09:02:35;;;;;;;0.10;0.10;;;27.20;78.50;;;;;;5065544;28;20209;-66
2021/08/13 09:05:03;;;;;;;0.50;0.50;;;27.30;78.50;;;;;;5065646;28;20566;-67
2021/08/13 09:07:30;;;;;;;0.20;0.20;;;27.40;78.50;;;;;;5063335;28;20691;-67
2021/08/13 09:09:59;;;;;;;1.60;0.57;;;27.50;78.90;;;;;;5065402;28;20648;-67
2021/08/13 09:12:26;;;;;;;0.30;0.30;;;27.60;78.00;;;;;;5065602;28;20589;-67
2021/08/13 09:14:53;;;;;;;0.10;0.10;;;27.70;77.80;;;;;;5062980;28;20660;-67
2021/08/13 09:17:28;;;;;;;0.37;0.37;;;27.80;77.60;;;;;;5065658;28;20210;-67
2021/08/13 09:19:56;;;;;;;0.30;0.30;;;27.90;77.10;;;;;;5066521;28;20213;-67
2021/08/13 09:22:24;;;;;;;0.10;0.10;;;28.10;74.50;;;;;;5072481;28;20665;-67
2021/08/13 09:24:53;;;;;;;0.30;0.30;;;28.10;72.80;;;;;;5064039;28;20572;-67
2021/08/13 09:27:29;;;;;;;0.17;0.17;;;28.10;71.50;;;;;;5068154;28;20558;-67
2021/08/13 09:30:13;;;;;;;0.50;0.50;;;28.10;71.00;;;;;;5066966;28;20225;-67
2021/08/13 09:32:43;;;;;;;0.33;0.33;;;28.10;70.10;;;;;;5070332;28;20214;-66
2021/08/13 09:35:13;;;;;;;0.10;0.10;;;28.10;69.00;;;;;;5063462;28;20222;-66
2021/08/13 09:37:47;;;;;;;0.00;0.00;;;28.10;67.50;;;;;;5061866;28;20276;-66
2021/08/13 09:40:15;;;;;;;0.30;0.30;;;28.20;67.60;;;;;;5063968;28;20213;-66
2021/08/13 09:42:42;;;;;;;0.00;0.00;;;28.20;68.70;;;;;;5063566;28;20214;-66
2021/08/13 09:45:10;;;;;;;0.00;0.00;;;28.30;70.40;;;;;;5066833;28;20241;-66
2021/08/13 09:47:47;;;;;;;0.30;0.30;;;28.30;71.40;;;;;;5064452;28;20267;-66
2021/08/13 09:50:19;;;;;;;0.20;0.20;;;28.40;72.10;;;;;;5065489;28;20237;-66
2021/08/13 09:53:06;;;;;;;0.40;0.40;;;28.50;72.30;;;;;;5072748;28;20220;-66
2021/08/13 09:55:35;;;;;;;0.10;0.10;;;28.60;72.30;;;;;;5063623;28;20205;-66
2021/08/13 09:58:03;;;;;;;0.60;0.60;;;28.80;72.30;;;;;;5065451;28;20209;-66
2021/08/13 10:00:40;;;;;;;0.23;0.23;;;29.00;72.40;;;;;;5063968;28;20608;-67
2021/08/13 10:03:08;;;;;;;1.17;1.10;;;29.10;72.20;;;;;;5063283;28;20218;-68
2021/08/13 10:05:36;;;;;;;0.53;0.53;;;29.20;72.20;;;;;;5063222;28;20228;-68
2021/08/13 10:08:04;;;;;;;0.30;0.30;;;29.30;72.30;;;;;;5065430;28;20213;-68
2021/08/13 10:10:33;;;;;;;0.10;0.10;;;29.30;72.60;;;;;;5063122;28;20242;-68
2021/08/13 10:13:02;;;;;;;0.20;0.20;;;29.30;73.00;;;;;;5062921;28;20264;-68
2021/08/13 10:15:43;;;;;;;0.10;0.10;;;29.30;73.10;;;;;;5066534;28;20616;-68
2021/08/13 10:18:12;;;;;;;0.13;0.13;;;29.30;73.00;;;;;;5062396;28;20272;-68
2021/08/13 10:20:45;;;;;;;0.37;0.37;;;29.30;72.90;;;;;;5063604;28;20222;-68
2021/08/13 10:23:13;;;;;;;0.10;0.10;;;29.40;72.60;;;;;;5065387;28;20209;-68
2021/08/13 10:25:41;;;;;;;0.03;0.03;;;29.40;72.00;;;;;;5063029;28;20210;-68
2021/08/13 10:28:08;;;;;;;0.10;0.10;;;29.50;71.70;;;;;;5062960;28;20283;-68
2021/08/13 10:30:35;;;;;;;0.10;0.10;;;29.50;71.10;;;;;;5052939;28;20719;-68
2021/08/13 10:33:07;;;;;;;0.10;0.10;;;29.70;71.00;;;;;;5053557;28;20210;-68
2021/08/13 10:35:49;;;;;;;0.00;0.00;;;30.10;70.40;;;;;;5060841;28;20949;-68
2021/08/13 10:38:18;;;;;;;0.10;0.10;;;30.70;67.80;;;;;;5065057;28;20247;-68
2021/08/13 10:40:46;;;;;;;0.00;0.00;;;31.20;66.20;;;;;;5061295;28;20623;-68
2021/08/13 10:43:14;;;;;;;0.10;0.10;;;31.70;63.90;;;;;;5063574;28;20214;-68
2021/08/13 10:45:43;;;;;;;0.07;0.07;;;32.10;62.40;;;;;;5064521;28;20564;-68
2021/08/13 10:48:24;;;;;;;0.20;0.10;;;32.50;61.30;;;;;;5070416;28;20225;-68
2021/08/13 10:51:01;;;;;;;0.20;0.20;;;32.80;57.80;;;;;;5066939;28;20245;-68
2021/08/13 10:53:29;;;;;;;0.20;0.20;;;33.00;55.80;;;;;;5064314;28;20267;-68
2021/08/13 10:55:58;;;;;;;0.00;0.00;;;33.20;54.90;;;;;;5061921;28;20238;-68
2021/08/13 10:58:37;;;;;;;0.10;0.10;;;33.30;54.30;;;;;;5062038;28;20229;-68
2021/08/13 11:01:11;;;;;;;0.10;0.10;;;33.40;52.90;;;;;;5061697;28;20287;-68
2021/08/13 11:04:05;;;;;;;0.50;0.50;;;33.40;53.70;;;;;;5065158;28;20214;-68
2021/08/13 11:06:36;;;;;;;0.00;0.00;;;33.60;53.50;;;;;;5062073;28;20214;-68
2021/08/13 11:09:13;;;;;;;0.10;0.10;;;33.70;52.60;;;;;;5068484;28;20218;-68
2021/08/13 11:11:51;;;;;;;0.00;0.00;;;33.90;52.10;;;;;;5060120;28;20559;-68
2021/08/13 11:14:28;;;;;;;0.07;0.07;;;34.00;50.80;;;;;;5062966;28;20249;-68
2021/08/13 11:16:57;;;;;;;0.00;0.00;;;34.10;49.50;;;;;;5070452;28;20765;-68
2021/08/13 11:19:25;;;;;;;0.20;0.20;;;34.30;48.80;;;;;;5062658;28;20206;-68
2021/08/13 11:21:54;;;;;;;0.27;0.27;;;34.40;49.10;;;;;;5060009;28;20244;-68
2021/08/13 11:24:25;;;;;;;0.00;0.00;;;34.60;49.60;;;;;;5061473;28;20601;-68
2021/08/13 11:26:52;;;;;;;0.00;0.00;;;34.80;48.80;;;;;;5060210;28;20214;-68
2021/08/13 11:29:29;;;;;;;0.30;0.30;;;34.90;45.80;;;;;;5068620;28;20572;-68
2021/08/13 11:31:57;;;;;;;0.10;0.10;;;34.90;45.60;;;;;;5060523;28;20249;-68
2021/08/13 11:34:46;;;;;;;2.03;0.57;;;34.80;46.20;;;;;;5065180;28;20264;-68
2021/08/13 11:37:31;;;;;;;0.13;0.13;;;34.80;46.20;;;;;;5060277;28;20219;-68
2021/08/13 11:40:06;;;;;;;0.20;0.20;;;34.90;45.10;;;;;;5077086;28;20214;-68
2021/08/13 11:42:38;;;;;;;0.30;0.30;;;35.00;45.50;;;;;;5060859;28;20209;-68
2021/08/13 11:45:08;;;;;;;0.20;0.20;;;35.10;45.70;;;;;;5064789;28;20218;-68
2021/08/13 11:47:35;;;;;;;0.67;0.67;;;35.10;45.40;;;;;;5070959;28;20286;-68
2021/08/13 11:50:05;;;;;;;0.83;0.57;;;35.20;45.30;;;;;;5061133;28;20225;-68
2021/08/13 11:52:33;;;;;;;0.30;0.30;;;35.20;45.40;;;;;;5061173;28;20235;-68
2021/08/13 11:55:16;;;;;;;0.20;0.20;;;35.30;42.80;;;;;;5070192;28;20237;-68
2021/08/13 11:57:43;;;;;;;0.00;0.00;;;35.30;43.80;;;;;;5070437;28;20539;-68
2021/08/13 12:00:20;;;;;;;0.00;0.00;;;35.50;43.20;;;;;;5060567;28;20242;-68
2021/08/13 12:02:47;;;;;;;0.07;0.07;;;35.50;42.80;;;;;;5067900;28;20643;-68
2021/08/13 12:05:15;;;;;;;0.10;0.10;;;35.60;42.30;;;;;;5061922;28;20697;-68
2021/08/13 12:07:42;;;;;;;0.47;0.47;;;35.80;41.40;;;;;;5062618;28;20209;-68
2021/08/13 12:10:15;;;;;;;0.37;0.37;;;36.00;40.60;;;;;;5059567;28;20226;-69
2021/08/13 12:12:44;;;;;;;0.10;0.10;;;36.20;40.00;;;;;;5060036;28;20214;-69
2021/08/13 12:15:12;;;;;;;0.30;0.30;;;36.30;38.40;;;;;;5070085;28;20222;-69
2021/08/13 12:17:40;;;;;;;0.50;0.50;;;36.40;38.30;;;;;;5061475;28;20210;-69
2021/08/13 12:20:08;;;;;;;0.10;0.10;;;36.40;37.70;;;;;;5060287;28;20217;-69
2021/08/13 12:22:40;;;;;;;0.10;0.10;;;36.30;38.60;;;;;;5060187;28;20594;-69
2021/08/13 12:25:13;;;;;;;0.00;0.00;;;36.50;38.90;;;;;;5060990;28;20524;-69
2021/08/13 12:27:42;;;;;;;0.10;0.10;;;36.60;39.20;;;;;;5065606;28;20275;-69
2021/08/13 12:30:21;;;;;;;0.10;0.10;;;36.70;39.50;;;;;;5061648;28;20210;-69
2021/08/13 12:32:48;;;;;;;0.10;0.10;;;36.70;39.30;;;;;;5061276;28;20213;-69
2021/08/13 12:35:15;;;;;;;0.03;0.03;;;36.80;38.50;;;;;;5060155;28;20215;-69
2021/08/13 12:37:43;;;;;;;0.47;0.43;;;36.70;37.10;;;;;;5060047;28;20218;-69
2021/08/13 12:40:13;;;;;;;0.07;0.07;;;36.60;37.20;;;;;;5061382;28;20217;-69
2021/08/13 12:42:45;;;;;;;0.00;0.00;;;36.60;38.00;;;;;;5062798;28;20679;-69
2021/08/13 12:45:14;;;;;;;0.20;0.20;;;36.60;38.50;;;;;;5062875;28;20520;-69
2021/08/13 12:47:45;;;;;;;0.40;0.40;;;36.70;38.60;;;;;;5070134;28;20217;-69
2021/08/13 12:50:15;;;;;;;0.10;0.10;;;36.80;38.70;;;;;;5060922;28;20351;-69
2021/08/13 12:53:00;;;;;;;0.20;0.20;;;36.90;38.30;;;;;;5059786;28;20599;-69
2021/08/13 12:55:44;;;;;;;0.10;0.10;;;36.90;37.80;;;;;;5062385;28;20214;-69
2021/08/13 12:58:36;;;;;;;0.10;0.10;;;36.80;37.60;;;;;;5062483;28;20236;-69
2021/08/13 13:01:21;;;;;;;0.00;0.00;;;36.80;37.20;;;;;;5062413;28;20552;-69